Yucca Valley, CA

7:37 PM PDT on August 27, 2015 (GMT -0700)
APRSWXNET | | Change Station
CLOSE
Current Station
Personal Weather Station
Location: Yucca Valley, CA
Elevation: 3412 ft
Nearby Weather Stations

Elev 3412 ft 34.22 °N, 116.41 °W | Updated 23 minutes ago

Clear
Clear
92 °F
Feels Like 89 °F
N
6
Wind Variable Wind from WSW
Gusts 9.0 mph

Today
High -- | Low -- °F
--% Chance of Precip.
Yesterday
High -- | Low -- °F
Precip. -- in
6:15 AM 7:18 PM
Waxing Gibbous, 96% visible
Pressure 29.83 in
Visibility 10.0 miles
Clouds Scattered Clouds 8000 ft
Heat Index 89 °F
Dew Point 48 °F
Humidity 22%
Rainfall in
Snow Depth Not available.
UV 0 out of 12
Pollen 5.10 out of 12
Air Quality Not available.
Flu Activity Not available.
METAR KNXP 280156Z 00000KT 10SM SCT080 38/09 A2996 RMK AO2 SLP101 T03780094 $
Pressure 29.83 in
Visibility 10.0 miles
Clouds Scattered Clouds 8000 ft
Heat Index 89 °F
Dew Point 48 °F
Humidity 22%
Rainfall in
Snow Depth Not available.
UV 0 out of 12
Pollen 5.10 out of 12
Air Quality Not available.
Flu Activity Not available.
METAR KNXP 280156Z 00000KT 10SM SCT080 38/09 A2996 RMK AO2 SLP101 T03780094 $

10-Day Weather Forecast

×

Almanac

Astronomy

Aug. 27, 2015 Rise Set
Actual Time
Civil Twilight
Nautical Twilight
Astronomical Twilight
Moon
Length of Visible Light
Length of Day
Tomorrow will be .
, % of the Moon is Illuminated

Today's Extremes

State Highs State Lows

Community

WunderPhotos

Upload Photos

1,850,301 photos uploaded!

WunderBlogs® & News

Nearby

Air Quality

  Air Quality AQ Index Pollutant
Not available.

Snow Depth

Station Depth Elevation

Earthquake Activity

City Distance Mag. Time & Date
Minimum magnitude displayed is 2.5.

Coastal Water Temperatures

Place Temperature

Stations

Nearby Weather Stations

Station Location Temp. Windchill Dew Point Humidity Wind Precip. Elev Updated Type